Airfield :
LOGIN :

Register | Disclaimer

   EN    FR    IT 

 










Legend :    VFR   Marginal VFR   IFR   Intensive IFR   Very Intensive IFR
Visi :
Ceiling :
>= 8 km
>= 3000ft
5 to 8 km
1000 to 3000 ft
1500m to 5 km
500 to 1000 ft
800 to 1500m
200 to 500 ft
< 800m
< 200 ft
Symbols :   Thunderstorms  Fog  Heavy snow  Heavy precipitations  Wind > 20 kt
SIGMETs :     Misc.  Thunderstorms  Icing  Turbulence  Mountain Waves  Volcanic Ashes






- Airport Elevation : 768 ft
- IATA code : MXP


LIMC - Milano Malpensa

CURRENT METAR :
  • 020120Z 36007KT CAVOK M00/M03 Q1032 NOSIG

EXPIRED METARs :
  • 020050Z 36006KT CAVOK M00/M03 Q1032 NOSIG
  • 020020Z 01006KT CAVOK M00/M03 Q1032 NOSIG
  • 012350Z 02006KT CAVOK 00/M02 Q1032 NOSIG
  • 012320Z 36006KT CAVOK 01/M03 Q1032 NOSIG
  • 012250Z 01006KT CAVOK 01/M02 Q1032 NOSIG

TAF TAF LIMC
Valid from the 02 at 00:00 until the 03 at 06:00 UTC


012300Z 0200/0306 VRB05KT CAVOK



MET'MAP, your aeronautical weather chart ! - Copyright ORBIFLY December 2007 - Disclaimer

ORBIFLY MET'MAP TEAM :

Programming & Development : Alexandra Zaïnal
Concept & original design : Baudouin d'Aumeries
Assistance for programming : Marc-Olivier Méhu
Technical & hardware support : Manuel Goepfert

Contact : metmap@orbifly.com




SOURCES & CREDITS :

   NOAA